createdAt,value
2018-09-22T00:00:10.703Z,99.90
2018-09-22T00:02:41.184Z,99.90
2018-09-22T00:05:12.105Z,99.90
2018-09-22T00:07:46.256Z,99.90
2018-09-22T00:10:21.586Z,99.90
2018-09-22T00:12:52.106Z,99.90
2018-09-22T00:15:23.429Z,99.90
2018-09-22T00:17:55.058Z,99.90
2018-09-22T00:20:25.747Z,99.90
2018-09-22T00:22:56.747Z,99.90
2018-09-22T00:25:27.547Z,99.90
2018-09-22T00:27:59.586Z,99.90
2018-09-22T00:30:30.105Z,99.90
2018-09-22T00:33:00.781Z,99.90
2018-09-22T00:35:31.228Z,99.90
2018-09-22T00:38:01.659Z,99.90
2018-09-22T00:40:32.125Z,99.90
2018-09-22T00:43:05.409Z,99.90
2018-09-22T00:45:40.681Z,99.90
2018-09-22T00:48:16.453Z,99.90
2018-09-22T00:50:46.947Z,99.90
2018-09-22T00:53:17.923Z,99.90
2018-09-22T00:55:48.387Z,99.90
2018-09-22T00:58:19.426Z,99.90
2018-09-22T01:00:50.666Z,99.90
2018-09-22T01:03:22.260Z,99.90
2018-09-22T01:05:53.898Z,99.90
2018-09-22T01:08:24.865Z,99.90
2018-09-22T01:11:00.065Z,99.90
2018-09-22T01:13:30.355Z,99.90
2018-09-22T01:16:01.477Z,99.90
2018-09-22T01:18:37.185Z,99.90
2018-09-22T01:21:11.340Z,99.90
2018-09-22T01:23:43.388Z,99.90
2018-09-22T01:26:14.177Z,99.90
2018-09-22T01:28:47.265Z,99.90
2018-09-22T01:31:24.784Z,99.90
2018-09-22T01:33:55.474Z,99.90
2018-09-22T01:36:25.850Z,99.90
2018-09-22T01:38:56.378Z,99.90
2018-09-22T01:41:27.337Z,99.90
2018-09-22T01:43:58.219Z,99.90
2018-09-22T01:46:29.025Z,99.90
2018-09-22T01:49:00.302Z,99.90
2018-09-22T01:51:31.751Z,99.90
2018-09-22T01:54:02.944Z,99.90
2018-09-22T01:56:34.026Z,99.90
2018-09-22T01:59:05.302Z,99.90
2018-09-22T02:01:36.025Z,99.90
2018-09-22T02:04:07.454Z,99.90
2018-09-22T02:06:38.912Z,99.90
2018-09-22T02:09:11.697Z,99.90
2018-09-22T02:11:43.401Z,99.90
2018-09-22T02:14:15.059Z,99.90
2018-09-22T02:16:45.942Z,99.90
2018-09-22T02:19:17.216Z,99.90
2018-09-22T02:21:48.057Z,99.90
2018-09-22T02:24:18.962Z,99.90
2018-09-22T02:26:50.028Z,99.90
2018-09-22T02:29:20.787Z,99.90
2018-09-22T02:31:51.263Z,99.90
2018-09-22T02:34:22.273Z,99.90
2018-09-22T02:36:52.592Z,99.90
2018-09-22T02:39:22.784Z,99.90
2018-09-22T02:41:53.627Z,99.90
2018-09-22T02:44:25.386Z,99.90
2018-09-22T02:46:56.564Z,99.90
2018-09-22T02:49:27.362Z,99.90
2018-09-22T02:51:58.725Z,99.90
2018-09-22T02:54:29.503Z,99.90
2018-09-22T02:57:01.184Z,99.90
2018-09-22T02:59:31.502Z,99.90
2018-09-22T03:02:02.558Z,99.90
2018-09-22T03:04:33.942Z,99.90
2018-09-22T03:07:05.465Z,99.90
2018-09-22T03:09:37.063Z,99.90
2018-09-22T03:12:08.742Z,99.90
2018-09-22T03:14:39.383Z,99.90
2018-09-22T03:17:10.056Z,99.90
2018-09-22T03:19:40.855Z,99.90
2018-09-22T03:22:11.389Z,99.90
2018-09-22T03:24:41.585Z,99.90
2018-09-22T03:27:12.333Z,99.90
2018-09-22T03:29:44.220Z,99.90
2018-09-22T03:32:16.426Z,99.90
2018-09-22T03:34:47.009Z,99.90
2018-09-22T03:37:18.461Z,99.90
2018-09-22T03:39:49.219Z,99.90
2018-09-22T03:42:20.596Z,99.90
2018-09-22T03:44:52.196Z,99.90
2018-09-22T03:47:23.544Z,99.90
2018-09-22T03:49:54.825Z,99.90
2018-09-22T03:52:26.592Z,99.90
2018-09-22T03:54:58.308Z,99.90
2018-09-22T03:57:30.462Z,99.90
2018-09-22T04:00:01.060Z,99.90
2018-09-22T04:02:31.774Z,99.90
2018-09-22T04:05:02.228Z,99.90
2018-09-22T04:07:33.755Z,99.90
2018-09-22T04:10:04.600Z,99.90
2018-09-22T04:12:35.743Z,99.90
2018-09-22T04:15:07.032Z,99.90
2018-09-22T04:17:37.219Z,99.90
2018-09-22T04:20:07.865Z,99.90
2018-09-22T04:22:38.514Z,99.90
2018-09-22T04:25:09.096Z,99.90
2018-09-22T04:27:40.338Z,99.90
2018-09-22T04:30:12.105Z,99.90
2018-09-22T04:32:42.482Z,99.90
2018-09-22T04:35:13.845Z,99.90
2018-09-22T04:37:45.197Z,99.90
2018-09-22T04:40:16.345Z,99.90
2018-09-22T04:42:46.907Z,99.90
2018-09-22T04:45:17.779Z,99.90
2018-09-22T04:47:48.385Z,99.90
2018-09-22T04:50:19.537Z,99.90
2018-09-22T04:52:50.298Z,99.90
2018-09-22T04:55:21.615Z,99.90
2018-09-22T04:57:52.481Z,99.90
2018-09-22T05:00:23.327Z,99.90
2018-09-22T05:02:53.769Z,99.90
2018-09-22T05:05:24.911Z,99.90
2018-09-22T05:07:55.183Z,99.90
2018-09-22T05:10:25.947Z,99.90
2018-09-22T05:12:56.585Z,99.90
2018-09-22T05:15:27.331Z,99.90
2018-09-22T05:17:58.433Z,99.90
2018-09-22T05:20:29.284Z,99.90
2018-09-22T05:23:00.307Z,99.90
2018-09-22T05:25:31.098Z,99.90
2018-09-22T05:28:02.899Z,99.90
2018-09-22T05:30:33.743Z,99.90
2018-09-22T05:33:04.986Z,99.90
2018-09-22T05:35:36.348Z,99.90
2018-09-22T05:38:08.677Z,99.90
2018-09-22T05:40:39.588Z,99.90
2018-09-22T05:43:10.588Z,99.90
2018-09-22T05:45:41.470Z,99.90
2018-09-22T05:48:11.738Z,99.90
2018-09-22T05:50:42.356Z,99.90
2018-09-22T05:53:13.100Z,99.90
2018-09-22T05:55:44.083Z,99.90
2018-09-22T05:58:14.807Z,99.90
2018-09-22T06:00:45.645Z,99.90
2018-09-22T06:03:16.347Z,99.90
2018-09-22T06:05:46.669Z,99.90
2018-09-22T06:08:17.672Z,99.90
2018-09-22T06:10:48.666Z,99.90
2018-09-22T06:13:20.479Z,99.90
2018-09-22T06:15:51.700Z,99.90
2018-09-22T06:18:22.481Z,99.90
2018-09-22T06:20:55.513Z,99.90
2018-09-22T06:23:26.581Z,99.90
2018-09-22T06:25:58.436Z,99.90
2018-09-22T06:28:29.794Z,99.90
2018-09-22T06:31:00.784Z,99.90
2018-09-22T06:33:32.003Z,99.90
2018-09-22T06:36:04.933Z,99.90
2018-09-22T06:38:36.201Z,99.90
2018-09-22T06:41:07.505Z,99.90
2018-09-22T06:43:38.557Z,99.90
2018-09-22T06:46:09.616Z,99.90
2018-09-22T06:48:40.224Z,99.90
2018-09-22T06:51:10.700Z,99.90
2018-09-22T06:53:42.035Z,99.90
2018-09-22T06:56:13.164Z,99.90
2018-09-22T06:58:43.632Z,99.90
2018-09-22T07:01:14.418Z,99.90
2018-09-22T07:03:45.435Z,99.90
2018-09-22T07:06:15.569Z,99.90
2018-09-22T07:08:46.591Z,99.90
2018-09-22T07:11:17.247Z,99.70
2018-09-22T07:13:47.545Z,97.80
2018-09-22T07:16:18.272Z,99.00
2018-09-22T07:18:48.653Z,98.90
2018-09-22T07:21:23.028Z,97.80
2018-09-22T07:23:53.344Z,97.00
2018-09-22T07:26:24.441Z,95.10
2018-09-22T07:28:55.512Z,94.80
2018-09-22T07:31:26.316Z,94.40
2018-09-22T07:33:56.724Z,93.00
2018-09-22T07:36:27.506Z,93.20
2018-09-22T07:38:58.335Z,92.60
2018-09-22T07:41:28.640Z,93.70
2018-09-22T07:44:00.103Z,92.10
2018-09-22T07:46:30.333Z,93.10
2018-09-22T07:49:02.320Z,92.70
2018-09-22T07:51:34.031Z,90.00
2018-09-22T07:54:04.931Z,88.30
2018-09-22T07:56:36.034Z,86.10
2018-09-22T07:59:06.784Z,87.50
2018-09-22T08:01:37.326Z,85.70
2018-09-22T08:04:08.040Z,85.70
2018-09-22T08:06:38.456Z,89.20
2018-09-22T08:09:09.906Z,88.80
2018-09-22T08:11:40.705Z,90.40
2018-09-22T08:14:11.635Z,88.20
2018-09-22T08:16:42.502Z,89.70
2018-09-22T08:19:13.557Z,89.30
2018-09-22T08:21:44.732Z,84.70
2018-09-22T08:24:15.797Z,86.80
2018-09-22T08:26:46.516Z,89.70
2018-09-22T08:29:17.207Z,84.60
2018-09-22T08:31:47.454Z,81.20
2018-09-22T08:34:18.192Z,82.50
2018-09-22T08:36:49.735Z,82.30
2018-09-22T08:39:20.417Z,79.20
2018-09-22T08:41:51.089Z,78.40
2018-09-22T08:44:21.176Z,80.80
2018-09-22T08:46:51.308Z,77.90
2018-09-22T08:49:22.338Z,82.00
2018-09-22T08:51:52.828Z,85.60
2018-09-22T08:54:23.003Z,83.90
2018-09-22T08:56:53.372Z,85.50
2018-09-22T08:59:24.426Z,88.00
2018-09-22T09:01:55.301Z,90.50
2018-09-22T09:04:26.876Z,86.90
2018-09-22T09:06:58.426Z,82.80
2018-09-22T09:09:28.653Z,78.70
2018-09-22T09:11:59.027Z,80.60
2018-09-22T09:14:29.460Z,78.20
2018-09-22T09:17:00.037Z,79.20
2018-09-22T09:19:30.805Z,78.10
2018-09-22T09:22:02.289Z,78.20
2018-09-22T09:24:32.772Z,75.90
2018-09-22T09:27:04.429Z,72.50
2018-09-22T09:29:34.734Z,75.20
2018-09-22T09:32:05.074Z,74.00
2018-09-22T09:34:37.349Z,72.60
2018-09-22T09:37:07.870Z,79.00
2018-09-22T09:39:38.369Z,76.50
2018-09-22T09:42:08.617Z,74.40
2018-09-22T09:44:39.530Z,71.60
2018-09-22T09:47:09.846Z,68.00
2018-09-22T09:49:40.636Z,69.40
2018-09-22T09:52:11.182Z,69.20
2018-09-22T09:54:41.979Z,72.70
2018-09-22T09:57:14.945Z,75.70
2018-09-22T09:59:45.589Z,70.40
2018-09-22T10:02:16.602Z,71.00
2018-09-22T10:04:46.824Z,74.30
2018-09-22T10:07:17.644Z,70.60
2018-09-22T10:09:48.499Z,70.40
2018-09-22T10:12:18.701Z,67.70
2018-09-22T10:14:49.051Z,66.50
2018-09-22T10:17:19.698Z,67.20
2018-09-22T10:19:50.387Z,66.60
2018-09-22T10:22:20.999Z,69.30
2018-09-22T10:24:51.556Z,70.20
2018-09-22T10:27:22.186Z,72.80
2018-09-22T10:29:52.410Z,72.40
2018-09-22T10:32:23.268Z,68.30
2018-09-22T10:34:54.189Z,67.20
2018-09-22T10:37:25.538Z,69.70
2018-09-22T10:39:57.025Z,70.50
2018-09-22T10:42:27.327Z,72.00
2018-09-22T10:44:58.045Z,71.30
2018-09-22T10:47:28.424Z,72.30
2018-09-22T10:49:59.247Z,67.50
2018-09-22T10:52:30.078Z,65.90
2018-09-22T10:55:00.951Z,66.20
2018-09-22T10:57:31.864Z,68.60
2018-09-22T11:00:03.355Z,66.50
2018-09-22T11:02:34.770Z,63.90
2018-09-22T11:05:05.248Z,65.60
2018-09-22T11:07:36.275Z,60.10
2018-09-22T11:10:06.787Z,59.90
2018-09-22T11:12:37.101Z,60.30
2018-09-22T11:15:07.713Z,59.00
2018-09-22T11:17:37.857Z,59.80
2018-09-22T11:20:08.989Z,62.10
2018-09-22T11:22:38.886Z,65.60
2018-09-22T11:25:09.421Z,62.00
2018-09-22T11:27:40.249Z,60.80
2018-09-22T11:30:11.862Z,55.00
2018-09-22T11:32:42.645Z,57.70
2018-09-22T11:35:18.156Z,57.30
2018-09-22T11:37:49.164Z,54.20
2018-09-22T11:40:19.500Z,54.80
2018-09-22T11:42:51.077Z,55.80
2018-09-22T11:45:22.274Z,56.00
2018-09-22T11:47:54.177Z,55.30
2018-09-22T11:50:25.311Z,57.50
2018-09-22T11:52:56.186Z,56.60
2018-09-22T11:55:26.540Z,55.80
2018-09-22T11:57:56.931Z,56.00
2018-09-22T12:00:27.025Z,60.20
2018-09-22T12:02:57.270Z,60.70
2018-09-22T12:05:27.420Z,61.50
2018-09-22T12:07:57.644Z,60.80
2018-09-22T12:10:27.721Z,63.90
2018-09-22T12:12:57.998Z,62.10
2018-09-22T12:15:29.030Z,61.70
2018-09-22T12:17:59.517Z,63.50
2018-09-22T12:20:29.893Z,58.80
2018-09-22T12:23:00.239Z,57.60
2018-09-22T12:25:30.868Z,58.30
2018-09-22T12:28:00.873Z,57.10
2018-09-22T12:30:31.323Z,58.80
2018-09-22T12:33:01.847Z,58.80
2018-09-22T12:35:32.524Z,56.80
2018-09-22T12:38:03.314Z,59.50
2018-09-22T12:40:33.590Z,56.90
2018-09-22T12:43:04.381Z,58.70
2018-09-22T12:45:34.903Z,57.00
2018-09-22T12:48:05.304Z,55.40
2018-09-22T12:50:35.878Z,50.50
2018-09-22T12:53:06.646Z,52.20
2018-09-22T12:55:36.933Z,52.40
2018-09-22T12:58:07.661Z,54.60
2018-09-22T13:00:38.476Z,55.50
2018-09-22T13:03:08.946Z,53.30
2018-09-22T13:05:39.541Z,56.50
2018-09-22T13:08:10.265Z,57.40
2018-09-22T13:10:41.312Z,59.40
2018-09-22T13:13:11.561Z,57.10
2018-09-22T13:15:42.114Z,59.50
2018-09-22T13:18:12.793Z,59.80
2018-09-22T13:20:43.788Z,57.80
2018-09-22T13:23:13.868Z,54.00
2018-09-22T13:25:44.459Z,54.20
2018-09-22T13:28:15.089Z,54.40
2018-09-22T13:30:45.998Z,58.70
2018-09-22T13:33:17.170Z,59.40
2018-09-22T13:35:48.127Z,55.20
2018-09-22T13:38:19.541Z,55.40
2018-09-22T13:40:51.036Z,57.50
2018-09-22T13:43:21.466Z,58.40
2018-09-22T13:45:52.507Z,58.00
2018-09-22T13:48:23.343Z,56.90
2018-09-22T13:50:54.094Z,59.80
2018-09-22T13:53:25.481Z,61.90
2018-09-22T13:55:55.817Z,61.30
2018-09-22T13:58:26.426Z,62.90
2018-09-22T14:00:56.817Z,64.70
2018-09-22T14:03:27.207Z,66.00
2018-09-22T14:05:57.766Z,66.10
2018-09-22T14:08:28.490Z,65.10
2018-09-22T14:10:59.266Z,65.90
2018-09-22T14:13:30.668Z,65.30
2018-09-22T14:16:01.302Z,67.50
2018-09-22T14:18:31.527Z,66.80
2018-09-22T14:21:01.641Z,65.50
2018-09-22T14:23:31.727Z,68.20
2018-09-22T14:26:02.567Z,68.80
2018-09-22T14:28:33.126Z,69.80
2018-09-22T14:31:03.696Z,68.20
2018-09-22T14:33:34.708Z,69.80
2018-09-22T14:36:05.892Z,70.10
2018-09-22T14:38:37.683Z,70.00
2018-09-22T14:41:08.277Z,68.90
2018-09-22T14:43:39.003Z,67.90
2018-09-22T14:46:09.714Z,69.80
2018-09-22T14:48:40.803Z,69.30
2018-09-22T14:51:12.071Z,70.20
2018-09-22T14:53:43.111Z,71.20
2018-09-22T14:56:13.859Z,69.90
2018-09-22T14:58:44.509Z,69.00
2018-09-22T15:01:15.312Z,69.90
2018-09-22T15:03:46.352Z,71.80
2018-09-22T15:06:16.661Z,71.80
2018-09-22T15:08:47.374Z,73.00
2018-09-22T15:11:17.811Z,72.20
2018-09-22T15:13:48.357Z,72.80
2018-09-22T15:16:19.685Z,73.50
2018-09-22T15:18:50.759Z,73.40
2018-09-22T15:21:21.285Z,73.90
2018-09-22T15:23:52.848Z,72.70
2018-09-22T15:26:24.203Z,75.40
2018-09-22T15:28:55.564Z,76.40
2018-09-22T15:31:26.666Z,74.30
2018-09-22T15:33:57.255Z,73.40
2018-09-22T15:36:28.037Z,73.50
2018-09-22T15:38:58.663Z,73.70
2018-09-22T15:41:29.247Z,76.10
2018-09-22T15:44:00.627Z,78.30
2018-09-22T15:46:31.924Z,77.50
2018-09-22T15:49:02.838Z,76.60
2018-09-22T15:51:33.590Z,77.60
2018-09-22T15:54:04.595Z,78.90
2018-09-22T15:56:35.600Z,79.40
2018-09-22T15:59:06.403Z,79.70
2018-09-22T16:01:37.462Z,79.50
2018-09-22T16:04:08.272Z,78.90
2018-09-22T16:06:39.651Z,79.30
2018-09-22T16:09:11.460Z,78.60
2018-09-22T16:11:42.205Z,79.90
2018-09-22T16:14:13.770Z,78.10
2018-09-22T16:16:45.193Z,78.00
2018-09-22T16:19:15.715Z,81.10
2018-09-22T16:21:46.417Z,78.70
2018-09-22T16:24:17.145Z,79.30
2018-09-22T16:26:48.212Z,80.80
2018-09-22T16:29:19.426Z,81.50
2018-09-22T16:31:50.273Z,81.00
2018-09-22T16:34:21.729Z,81.90
2018-09-22T16:36:52.172Z,81.30
2018-09-22T16:39:23.538Z,81.80
2018-09-22T16:41:54.179Z,81.40
2018-09-22T16:44:27.180Z,81.90
2018-09-22T16:46:58.089Z,79.90
2018-09-22T16:49:29.067Z,80.70
2018-09-22T16:52:00.313Z,81.20
2018-09-22T16:54:31.060Z,81.50
2018-09-22T16:57:02.242Z,81.30
2018-09-22T16:59:33.587Z,82.10
2018-09-22T17:02:04.911Z,82.20
2018-09-22T17:04:36.433Z,81.70
2018-09-22T17:07:06.897Z,81.70
2018-09-22T17:09:37.193Z,82.60
2018-09-22T17:12:07.578Z,82.80
2018-09-22T17:14:37.823Z,83.60
2018-09-22T17:17:08.693Z,83.00
2018-09-22T17:19:39.550Z,84.10
2018-09-22T17:22:09.744Z,84.40
2018-09-22T17:24:40.541Z,84.40
2018-09-22T17:27:12.332Z,85.90
2018-09-22T17:29:43.365Z,84.30
2018-09-22T17:32:14.604Z,84.00
2018-09-22T17:34:46.113Z,85.70
2018-09-22T17:37:17.597Z,86.00
2018-09-22T17:39:48.557Z,86.10
2018-09-22T17:42:19.523Z,85.30
2018-09-22T17:44:50.422Z,86.30
2018-09-22T17:47:21.397Z,86.00
2018-09-22T17:49:52.758Z,87.30
2018-09-22T17:52:23.514Z,86.70
2018-09-22T17:54:53.693Z,88.40
2018-09-22T17:57:25.166Z,87.30
2018-09-22T17:59:55.939Z,87.20
2018-09-22T18:02:26.713Z,87.60
2018-09-22T18:04:57.798Z,88.30
2018-09-22T18:07:28.756Z,90.00
2018-09-22T18:09:59.488Z,90.00
2018-09-22T18:12:30.358Z,90.00
2018-09-22T18:15:00.929Z,89.50
2018-09-22T18:17:31.626Z,89.30
2018-09-22T18:20:02.548Z,89.60
2018-09-22T18:22:33.579Z,89.90
2018-09-22T18:25:04.481Z,90.20
2018-09-22T18:27:36.366Z,90.20
2018-09-22T18:30:07.556Z,90.70
2018-09-22T18:32:38.702Z,90.40
2018-09-22T18:35:10.821Z,90.80
2018-09-22T18:37:42.523Z,91.00
2018-09-22T18:40:13.244Z,91.50
2018-09-22T18:42:44.664Z,91.50
2018-09-22T18:45:15.266Z,91.90
2018-09-22T18:47:46.117Z,91.90
2018-09-22T18:50:16.626Z,92.10
2018-09-22T18:52:47.607Z,91.80
2018-09-22T18:55:18.319Z,92.30
2018-09-22T18:57:48.469Z,92.40
2018-09-22T19:00:18.637Z,92.10
2018-09-22T19:02:49.766Z,92.20
2018-09-22T19:05:21.181Z,93.00
2018-09-22T19:07:52.686Z,93.20
2018-09-22T19:10:23.515Z,93.50
2018-09-22T19:12:54.809Z,93.60
2018-09-22T19:15:58.054Z,93.90
2018-09-22T19:18:42.104Z,94.80
2018-09-22T19:21:16.017Z,94.50
2018-09-22T19:23:53.112Z,94.80
2018-09-22T19:26:30.730Z,94.70
2018-09-22T19:29:11.800Z,95.40
2018-09-22T19:31:49.778Z,95.10
2018-09-22T19:34:25.514Z,95.10
2018-09-22T19:37:01.266Z,95.70
2018-09-22T19:39:36.479Z,95.70
2018-09-22T19:42:12.669Z,96.00
2018-09-22T19:44:46.877Z,96.80
2018-09-22T19:47:36.684Z,96.60
2018-09-22T19:50:10.876Z,96.80
2018-09-22T19:52:51.676Z,96.50
2018-09-22T19:55:22.428Z,97.30
2018-09-22T19:57:52.937Z,97.20
2018-09-22T20:00:23.323Z,97.40
2018-09-22T20:02:54.166Z,97.20
2018-09-22T20:05:25.183Z,97.50
2018-09-22T20:07:55.837Z,97.80
2018-09-22T20:10:26.876Z,97.80
2018-09-22T20:12:57.125Z,98.00
2018-09-22T20:15:27.660Z,98.10
2018-09-22T20:17:58.707Z,97.90
2018-09-22T20:20:29.226Z,98.10
2018-09-22T20:23:00.855Z,97.90
2018-09-22T20:25:31.517Z,98.30
2018-09-22T20:28:02.019Z,98.10
2018-09-22T20:30:33.087Z,98.30
2018-09-22T20:33:04.008Z,98.50
2018-09-22T20:35:35.259Z,98.50
2018-09-22T20:38:06.836Z,98.40
2018-09-22T20:40:37.129Z,98.60
2018-09-22T20:43:07.637Z,98.40
2018-09-22T20:45:38.849Z,98.50
2018-09-22T20:48:10.765Z,99.70
2018-09-22T20:50:42.263Z,98.90
2018-09-22T20:53:14.273Z,99.10
2018-09-22T20:55:45.523Z,98.40
2018-09-22T20:58:16.775Z,98.50
2018-09-22T21:00:47.416Z,98.80
2018-09-22T21:03:18.527Z,98.50
2018-09-22T21:05:49.566Z,98.70
2018-09-22T21:08:20.477Z,99.20
2018-09-22T21:10:51.885Z,99.50
2018-09-22T21:13:23.017Z,99.60
2018-09-22T21:15:53.685Z,99.90
2018-09-22T21:18:25.006Z,99.90
2018-09-22T21:20:56.013Z,99.90
2018-09-22T21:23:27.577Z,99.90
2018-09-22T21:25:59.066Z,99.90
2018-09-22T21:28:30.120Z,99.90
2018-09-22T21:31:01.315Z,99.90
2018-09-22T21:33:32.581Z,99.90
2018-09-22T21:36:04.607Z,99.90
2018-09-22T21:38:35.471Z,99.90
2018-09-22T21:41:06.364Z,99.90
2018-09-22T21:43:37.588Z,99.90
2018-09-22T21:46:08.436Z,99.90
2018-09-22T21:48:39.524Z,99.90
2018-09-22T21:51:10.762Z,99.90
2018-09-22T21:53:41.519Z,99.90
2018-09-22T21:56:12.604Z,99.90
2018-09-22T21:58:43.203Z,99.90
2018-09-22T22:01:18.163Z,99.90
2018-09-22T22:03:48.184Z,99.90
2018-09-22T22:06:18.341Z,99.90
2018-09-22T22:08:48.583Z,99.90
2018-09-22T22:11:18.754Z,99.90
2018-09-22T22:13:48.913Z,99.90
2018-09-22T22:16:18.918Z,99.90
2018-09-22T22:18:48.883Z,99.90
2018-09-22T22:21:23.481Z,99.90
2018-09-22T22:23:53.692Z,99.90
2018-09-22T22:26:23.828Z,99.90
2018-09-22T22:28:55.324Z,99.90
2018-09-22T22:31:25.246Z,99.90
2018-09-22T22:33:55.591Z,99.90
2018-09-22T22:36:25.592Z,99.90
2018-09-22T22:38:55.981Z,99.90
2018-09-22T22:41:25.969Z,99.90
2018-09-22T22:43:56.306Z,99.90
2018-09-22T22:46:26.425Z,99.90
2018-09-22T22:48:56.833Z,99.90
2018-09-22T22:51:27.042Z,99.90
2018-09-22T22:53:57.262Z,99.90
2018-09-22T22:56:27.387Z,99.90
2018-09-22T22:58:57.478Z,99.90
2018-09-22T23:01:27.816Z,99.90
2018-09-22T23:03:57.791Z,99.90
2018-09-22T23:06:27.759Z,99.90
2018-09-22T23:08:57.939Z,99.90
2018-09-22T23:11:28.086Z,99.90
2018-09-22T23:13:58.025Z,99.90
2018-09-22T23:16:28.422Z,99.90
2018-09-22T23:18:58.761Z,99.90
2018-09-22T23:21:29.222Z,99.90
2018-09-22T23:23:59.962Z,99.90
2018-09-22T23:26:30.081Z,99.90
2018-09-22T23:29:00.583Z,99.90
2018-09-22T23:31:30.704Z,99.90
2018-09-22T23:34:01.252Z,99.90
2018-09-22T23:36:31.239Z,99.90
2018-09-22T23:39:01.367Z,99.90
2018-09-22T23:41:31.384Z,99.90
2018-09-22T23:44:01.578Z,99.90
2018-09-22T23:46:31.693Z,99.90
2018-09-22T23:49:02.029Z,99.90
2018-09-22T23:51:32.391Z,99.90
2018-09-22T23:54:02.587Z,99.90
2018-09-22T23:56:32.583Z,99.90
2018-09-22T23:59:02.883Z,99.90
